Time;durP1;ratioP1;P1;durP2;ratioP2;P2;SDS_P1;SDS_P2;PMS_P1;PMS_P2;Temp;Humidity;BMP_temperature;BMP_pressure;BME280_temperature;BME280_humidity;BME280_pressure;Samples;Min_cycle;Max_cycle;Signal;HPM_P1;HPM_P2
2023/12/12 00:00:19;;;;;;;;;;;16.20;55.10;;;;;;5067314;28;43049;-79
2023/12/12 00:02:45;;;;;;;;;;;16.30;54.60;;;;;;5062620;28;43683;-80
2023/12/12 00:05:10;;;;;;;;;;;16.50;54.80;;;;;;5048846;28;42997;-79
2023/12/12 00:07:36;;;;;;;;;;;16.30;54.60;;;;;;5066416;28;43509;-79
2023/12/12 00:10:01;;;;;;;;;;;16.40;55.10;;;;;;5066830;28;42934;-81
2023/12/12 00:12:27;;;;;;;;;;;16.40;54.70;;;;;;5066273;28;44103;-79
2023/12/12 00:14:52;;;;;;;;;;;16.30;55.10;;;;;;5066232;28;42985;-81
2023/12/12 00:17:18;;;;;;;;;;;16.40;54.70;;;;;;5065553;28;43670;-79
2023/12/12 00:19:43;;;;;;;;;;;16.50;55.10;;;;;;5065117;28;43203;-81
2023/12/12 00:22:09;;;;;;;;;;;16.40;54.50;;;;;;5066759;28;42914;-79
2023/12/12 00:24:35;;;;;;;;;;;16.30;54.20;;;;;;5066163;28;43050;-80
2023/12/12 00:27:00;;;;;;;;;;;16.40;54.90;;;;;;5065677;28;43010;-79
2023/12/12 00:29:26;;;;;;;;;;;16.00;54.30;;;;;;5048629;28;42995;-80
2023/12/12 00:31:51;;;;;;;;;;;16.30;55.20;;;;;;5048083;28;43663;-80
2023/12/12 00:34:17;;;;;;;;;;;16.50;55.20;;;;;;5065578;28;42752;-79
2023/12/12 00:36:42;;;;;;;;;;;16.30;54.70;;;;;;5066296;28;43432;-80
2023/12/12 00:39:08;;;;;;;;;;;16.30;54.90;;;;;;5066513;28;42871;-79
2023/12/12 00:41:33;;;;;;;;;;;16.30;54.50;;;;;;5066323;28;42994;-79
2023/12/12 00:43:59;;;;;;;;;;;16.40;54.50;;;;;;5064286;28;42977;-79
2023/12/12 00:46:24;;;;;;;;;;;16.30;54.60;;;;;;5066084;28;42909;-79
2023/12/12 00:48:50;;;;;;;;;;;16.40;54.50;;;;;;5065846;28;42788;-79
2023/12/12 00:51:15;;;;;;;;;;;16.30;54.80;;;;;;5066133;28;43909;-79
2023/12/12 00:53:41;;;;;;;;;;;16.30;55.20;;;;;;5065214;28;42922;-79
2023/12/12 00:56:07;;;;;;;;;;;;;;;;;;5064081;28;43284;-79
2023/12/12 00:58:33;;;;;;;;;;;16.40;54.20;;;;;;5066377;28;43024;-79
2023/12/12 01:00:58;;;;;;;;;;;16.20;55.30;;;;;;5068227;28;43743;-79
2023/12/12 01:03:24;;;;;;;;;;;16.30;54.70;;;;;;5075461;28;43029;-80
2023/12/12 01:05:49;;;;;;;;;;;16.30;55.20;;;;;;5066075;28;43016;-79
2023/12/12 01:08:15;;;;;;;;;;;16.30;55.10;;;;;;5065693;28;43053;-79
2023/12/12 01:10:40;;;;;;;;;;;16.20;55.10;;;;;;5047069;28;44263;-83
2023/12/12 01:13:06;;;;;;;;;;;16.30;55.10;;;;;;5066178;28;42790;-80
2023/12/12 01:15:31;;;;;;;;;;;16.30;55.60;;;;;;5065271;28;43512;-82
2023/12/12 01:17:57;;;;;;;;;;;16.40;55.40;;;;;;5065120;28;42771;-78
2023/12/12 01:20:25;;;;;;;;;;;16.30;55.60;;;;;;5068265;28;42868;-78
2023/12/12 01:22:51;;;;;;;;;;;16.10;53.20;;;;;;5065599;28;42867;-79
2023/12/12 01:25:16;;;;;;;;;;;16.20;55.50;;;;;;5064713;28;43216;-79
2023/12/12 01:27:42;;;;;;;;;;;16.30;55.30;;;;;;5065913;28;42915;-78
2023/12/12 01:30:07;;;;;;;;;;;16.30;55.40;;;;;;5066319;28;42838;-78
2023/12/12 01:32:33;;;;;;;;;;;16.30;55.50;;;;;;5061563;28;43399;-79
2023/12/12 01:34:59;;;;;;;;;;;16.10;55.70;;;;;;5065119;28;43061;-79
2023/12/12 01:37:25;;;;;;;;;;;16.50;55.80;;;;;;5064521;28;42943;-79
2023/12/12 01:39:51;;;;;;;;;;;16.10;55.60;;;;;;5064771;28;42933;-79
2023/12/12 01:42:16;;;;;;;;;;;16.30;55.90;;;;;;5065629;28;42956;-78
2023/12/12 01:44:42;;;;;;;;;;;;;;;;;;5065476;28;42997;-78
2023/12/12 01:47:09;;;;;;;;;;;16.20;55.80;;;;;;5066114;28;42905;-78
2023/12/12 01:49:34;;;;;;;;;;;16.20;54.60;;;;;;5062496;28;42901;-78
2023/12/12 01:52:00;;;;;;;;;;;16.30;55.80;;;;;;5065250;28;43081;-78
2023/12/12 01:54:26;;;;;;;;;;;16.40;55.70;;;;;;5065083;28;43617;-78
2023/12/12 01:56:52;;;;;;;;;;;16.40;55.80;;;;;;5064280;28;42973;-79
2023/12/12 01:59:19;;;;;;;;;;;16.00;55.60;;;;;;5064417;28;43488;-78
2023/12/12 02:01:45;;;;;;;;;;;16.40;56.20;;;;;;5065728;28;43006;-79
2023/12/12 02:04:11;;;;;;;;;;;;;;;;;;5064723;28;42988;-79
2023/12/12 02:06:36;;;;;;;;;;;16.30;55.00;;;;;;5064877;28;42848;-79
2023/12/12 02:09:02;;;;;;;;;;;16.30;54.30;;;;;;5063797;28;42767;-78
2023/12/12 02:11:27;;;;;;;;;;;16.10;53.70;;;;;;5046618;28;42850;-79
2023/12/12 02:13:53;;;;;;;;;;;16.30;53.80;;;;;;5065027;28;42892;-79
2023/12/12 02:16:18;;;;;;;;;;;16.20;54.40;;;;;;5062440;28;43376;-78
2023/12/12 02:18:44;;;;;;;;;;;16.30;54.20;;;;;;5062942;28;42767;-78
2023/12/12 02:21:13;;;;;;;;;;;16.30;53.90;;;;;;5063185;28;42875;-78
2023/12/12 02:23:39;;;;;;;;;;;16.30;53.90;;;;;;5065037;28;43098;-78
2023/12/12 02:26:05;;;;;;;;;;;16.20;53.80;;;;;;5064119;28;43295;-78
2023/12/12 02:28:30;;;;;;;;;;;16.30;53.50;;;;;;5064714;28;43005;-79
2023/12/12 02:30:58;;;;;;;;;;;16.20;54.00;;;;;;5065159;28;42867;-78
2023/12/12 02:33:23;;;;;;;;;;;16.30;53.50;;;;;;5064499;28;44233;-78
2023/12/12 02:35:49;;;;;;;;;;;16.20;54.10;;;;;;5065321;28;42939;-79
2023/12/12 02:38:14;;;;;;;;;;;16.10;54.10;;;;;;5063621;28;42988;-79
2023/12/12 02:40:40;;;;;;;;;;;16.20;53.80;;;;;;5063125;28;43057;-78
2023/12/12 02:43:05;;;;;;;;;;;16.50;55.00;;;;;;5063378;28;43586;-79
2023/12/12 02:45:31;;;;;;;;;;;16.10;55.80;;;;;;5064520;28;43295;-79
2023/12/12 02:47:56;;;;;;;;;;;16.40;56.30;;;;;;5064580;28;42979;-78
2023/12/12 02:50:22;;;;;;;;;;;16.30;56.30;;;;;;5064732;28;42894;-79
2023/12/12 02:52:47;;;;;;;;;;;16.40;56.10;;;;;;5062747;28;43553;-79
2023/12/12 02:55:13;;;;;;;;;;;16.40;56.00;;;;;;5064782;28;42859;-79
2023/12/12 02:57:38;;;;;;;;;;;16.10;56.00;;;;;;5063829;28;42985;-79
2023/12/12 03:00:05;;;;;;;;;;;16.30;55.70;;;;;;5064414;28;43005;-79
2023/12/12 03:02:32;;;;;;;;;;;16.20;55.80;;;;;;5045731;28;43527;-79
2023/12/12 03:04:58;;;;;;;;;;;16.30;55.70;;;;;;5045656;28;42899;-79
2023/12/12 03:07:24;;;;;;;;;;;16.30;55.70;;;;;;5064915;28;42894;-78
2023/12/12 03:09:49;;;;;;;;;;;16.10;55.90;;;;;;5068485;28;42871;-78
2023/12/12 03:12:15;;;;;;;;;;;16.10;55.30;;;;;;5066951;28;42895;-78
2023/12/12 03:14:40;;;;;;;;;;;16.30;55.40;;;;;;5067523;28;43122;-77
2023/12/12 03:17:06;;;;;;;;;;;16.30;55.10;;;;;;5067008;28;43774;-78
2023/12/12 03:19:32;;;;;;;;;;;16.20;55.10;;;;;;5072857;28;42957;-78
2023/12/12 03:21:57;;;;;;;;;;;16.20;55.20;;;;;;5075410;28;42821;-79
2023/12/12 03:24:23;;;;;;;;;;;16.10;54.70;;;;;;5067639;28;43234;-78
2023/12/12 03:26:48;;;;;;;;;;;16.10;54.80;;;;;;5065947;28;42937;-79
2023/12/12 03:29:14;;;;;;;;;;;16.10;54.70;;;;;;5068168;28;43361;-79
2023/12/12 03:31:39;;;;;;;;;;;16.30;55.20;;;;;;5067350;28;43028;-78
2023/12/12 03:34:05;;;;;;;;;;;16.00;55.70;;;;;;5066925;28;42796;-79
2023/12/12 03:36:31;;;;;;;;;;;16.00;55.00;;;;;;5067629;28;42843;-78
2023/12/12 03:38:56;;;;;;;;;;;16.30;54.70;;;;;;5067119;28;42860;-78
2023/12/12 03:41:22;;;;;;;;;;;;;;;;;;5067851;28;42993;-79
2023/12/12 03:43:48;;;;;;;;;;;16.20;55.40;;;;;;5067608;28;43060;-79
2023/12/12 03:46:14;;;;;;;;;;;16.20;55.40;;;;;;5066584;28;43338;-80
2023/12/12 03:48:39;;;;;;;;;;;16.30;55.50;;;;;;5047408;28;43616;-78
2023/12/12 03:51:07;;;;;;;;;;;16.30;54.80;;;;;;5067062;28;43761;-78
2023/12/12 03:53:33;;;;;;;;;;;16.00;55.00;;;;;;5066800;28;43269;-78
2023/12/12 03:55:58;;;;;;;;;;;16.20;55.60;;;;;;5066612;28;42847;-78
2023/12/12 03:58:24;;;;;;;;;;;16.20;55.30;;;;;;5064823;28;42941;-79
2023/12/12 04:00:49;;;;;;;;;;;16.10;55.60;;;;;;5066380;28;42894;-78
2023/12/12 04:03:15;;;;;;;;;;;16.10;55.30;;;;;;5063173;28;43053;-79
2023/12/12 04:05:41;;;;;;;;;;;16.00;55.50;;;;;;5066594;28;42949;-78
2023/12/12 04:08:07;;;;;;;;;;;16.20;55.10;;;;;;5066400;28;43101;-78
2023/12/12 04:10:33;;;;;;;;;;;16.10;55.20;;;;;;5066403;28;43438;-79
2023/12/12 04:12:59;;;;;;;;;;;16.10;55.70;;;;;;5067164;28;42781;-79
2023/12/12 04:15:25;;;;;;;;;;;;;;;;;;5045479;28;43540;-78
2023/12/12 04:17:50;;;;;;;;;;;16.10;54.40;;;;;;5064365;28;42901;-79
2023/12/12 04:20:16;;;;;;;;;;;16.00;54.90;;;;;;5066507;28;43031;-79
2023/12/12 04:22:41;;;;;;;;;;;16.10;55.70;;;;;;5065556;28;43036;-79
2023/12/12 04:25:07;;;;;;;;;;;16.10;55.30;;;;;;5065708;28;44238;-79
2023/12/12 04:27:32;;;;;;;;;;;16.20;55.10;;;;;;5066019;28;42917;-79
2023/12/12 04:29:58;;;;;;;;;;;16.00;55.50;;;;;;5067137;28;43692;-79
2023/12/12 04:32:23;;;;;;;;;;;15.90;55.20;;;;;;5047381;28;42933;-80
2023/12/12 04:34:49;;;;;;;;;;;16.10;55.10;;;;;;5066647;28;42916;-78
2023/12/12 04:37:15;;;;;;;;;;;16.10;54.50;;;;;;5066361;28;42970;-79
2023/12/12 04:39:40;;;;;;;;;;;16.00;54.10;;;;;;5066028;28;42910;-79
2023/12/12 04:42:06;;;;;;;;;;;16.10;54.60;;;;;;5048612;28;42848;-78
2023/12/12 04:44:31;;;;;;;;;;;16.10;54.20;;;;;;5065673;28;43745;-78
2023/12/12 04:46:57;;;;;;;;;;;16.00;55.20;;;;;;5066525;28;42903;-78
2023/12/12 04:49:22;;;;;;;;;;;16.10;55.20;;;;;;5066963;28;43758;-79
2023/12/12 04:51:48;;;;;;;;;;;16.10;55.30;;;;;;5066303;28;42755;-78
2023/12/12 04:54:13;;;;;;;;;;;16.10;55.30;;;;;;5064555;28;43648;-78
2023/12/12 04:56:39;;;;;;;;;;;16.10;55.20;;;;;;5066319;28;42803;-79
2023/12/12 04:59:04;;;;;;;;;;;16.00;55.30;;;;;;5065218;28;43003;-81
2023/12/12 05:01:31;;;;;;;;;;;15.90;55.60;;;;;;5065335;28;42885;-78
2023/12/12 05:03:56;;;;;;;;;;;16.00;55.70;;;;;;5046149;28;45034;-79
2023/12/12 05:06:22;;;;;;;;;;;16.10;55.60;;;;;;5065103;28;42946;-78
2023/12/12 05:08:47;;;;;;;;;;;16.10;55.60;;;;;;5061347;28;43614;-79
2023/12/12 05:11:13;;;;;;;;;;;15.90;55.60;;;;;;5049198;28;43376;-79
2023/12/12 05:13:39;;;;;;;;;;;16.10;55.40;;;;;;5065397;28;42989;-79
2023/12/12 05:16:07;;;;;;;;;;;15.90;56.00;;;;;;5062269;28;43023;-81
2023/12/12 05:18:32;;;;;;;;;;;16.10;55.40;;;;;;5062105;28;43490;-79
2023/12/12 05:20:58;;;;;;;;;;;16.10;55.60;;;;;;5056573;28;42921;-79
2023/12/12 05:23:23;;;;;;;;;;;16.00;55.50;;;;;;5062640;28;43015;-80
2023/12/12 05:25:49;;;;;;;;;;;16.10;54.00;;;;;;5063989;28;43033;-79
2023/12/12 05:28:16;;;;;;;;;;;16.10;54.10;;;;;;5064168;28;43038;-80
2023/12/12 05:30:42;;;;;;;;;;;16.00;53.90;;;;;;5063884;28;43041;-78
2023/12/12 05:33:07;;;;;;;;;;;16.00;53.90;;;;;;5064386;28;43556;-79
2023/12/12 05:35:33;;;;;;;;;;;16.00;53.50;;;;;;5063174;28;42879;-79
2023/12/12 05:37:58;;;;;;;;;;;16.10;53.60;;;;;;5077747;28;42879;-79
2023/12/12 05:40:24;;;;;;;;;;;16.00;53.70;;;;;;5067991;28;42999;-79
2023/12/12 05:42:49;;;;;;;;;;;15.70;54.00;;;;;;5064149;28;43071;-79
2023/12/12 05:45:15;;;;;;;;;;;16.00;54.40;;;;;;5062313;28;42954;-80
2023/12/12 05:47:40;;;;;;;;;;;16.00;54.80;;;;;;5064489;28;43032;-79
2023/12/12 05:50:06;;;;;;;;;;;15.70;55.30;;;;;;5064042;28;42938;-79
2023/12/12 05:52:32;;;;;;;;;;;15.80;55.20;;;;;;5065087;28;43830;-79
2023/12/12 05:54:57;;;;;;;;;;;16.10;55.40;;;;;;5065123;28;42752;-79
2023/12/12 05:57:23;;;;;;;;;;;16.20;55.60;;;;;;5065450;28;42910;-79
2023/12/12 05:59:48;;;;;;;;;;;16.10;55.60;;;;;;5062799;28;42958;-81
2023/12/12 06:02:14;;;;;;;;;;;16.10;55.70;;;;;;5060142;28;43417;-80
2023/12/12 06:04:39;;;;;;;;;;;15.90;55.60;;;;;;5062306;28;42974;-78
2023/12/12 06:07:05;;;;;;;;;;;16.20;55.70;;;;;;5044822;28;42955;-79
2023/12/12 06:09:31;;;;;;;;;;;16.00;56.20;;;;;;5045337;28;42922;-79
2023/12/12 06:11:57;;;;;;;;;;;15.90;55.00;;;;;;5041427;28;44959;-78
2023/12/12 06:14:23;;;;;;;;;;;15.90;55.30;;;;;;5060173;28;42968;-79
2023/12/12 06:16:48;;;;;;;;;;;15.90;55.90;;;;;;5063663;28;43364;-79
2023/12/12 06:19:14;;;;;;;;;;;16.00;55.60;;;;;;5055433;28;43521;-80
2023/12/12 06:21:39;;;;;;;;;;;15.90;55.90;;;;;;5056679;28;43826;-82
2023/12/12 06:24:05;;;;;;;;;;;16.00;54.20;;;;;;5060619;28;42904;-78
2023/12/12 06:26:31;;;;;;;;;;;16.00;53.70;;;;;;5063241;28;43015;-78
2023/12/12 06:28:56;;;;;;;;;;;15.90;54.10;;;;;;5059395;28;42974;-79
2023/12/12 06:31:23;;;;;;;;;;;16.00;54.40;;;;;;5050396;28;43667;-79
2023/12/12 06:33:52;;;;;;;;;;;15.90;54.20;;;;;;5025723;28;42828;-80
2023/12/12 06:36:17;;;;;;;;;;;16.10;53.70;;;;;;5037643;28;44281;-79
2023/12/12 06:38:43;;;;;;;;;;;16.00;55.50;;;;;;5064216;28;43332;-81
2023/12/12 06:41:09;;;;;;;;;;;15.90;55.10;;;;;;5064855;28;42984;-79
2023/12/12 06:43:34;;;;;;;;;;;15.90;54.60;;;;;;5062316;28;43163;-82
2023/12/12 06:46:00;;;;;;;;;;;15.80;54.20;;;;;;5062824;28;43384;-79
2023/12/12 06:48:26;;;;;;;;;;;15.90;55.60;;;;;;5063898;28;43217;-78
2023/12/12 06:50:52;;;;;;;;;;;15.90;55.80;;;;;;5067525;28;43187;-78
2023/12/12 06:53:18;;;;;;;;;;;15.80;55.60;;;;;;5065237;28;42909;-79
2023/12/12 06:55:44;;;;;;;;;;;16.00;55.60;;;;;;5065931;28;43131;-78
2023/12/12 06:58:09;;;;;;;;;;;15.90;55.30;;;;;;5066535;28;43094;-78
2023/12/12 07:00:35;;;;;;;;;;;15.90;54.80;;;;;;5066758;28;42768;-78
2023/12/12 07:03:00;;;;;;;;;;;15.80;53.10;;;;;;5068719;28;43221;-78
2023/12/12 07:05:26;;;;;;;;;;;16.00;51.60;;;;;;5068174;28;43719;-78
2023/12/12 07:07:52;;;;;;;;;;;15.80;50.60;;;;;;5066175;28;43070;-78
2023/12/12 07:10:17;;;;;;;;;;;15.80;50.40;;;;;;5066530;28;42993;-78
2023/12/12 07:12:44;;;;;;;;;;;15.90;50.70;;;;;;5068098;28;43004;-78
2023/12/12 07:15:10;;;;;;;;;;;16.10;50.50;;;;;;5066983;28;42783;-79
2023/12/12 07:17:36;;;;;;;;;;;15.80;50.60;;;;;;5065674;28;43001;-78
2023/12/12 07:20:02;;;;;;;;;;;15.90;50.10;;;;;;5064438;28;43115;-77
2023/12/12 07:22:28;;;;;;;;;;;15.80;50.00;;;;;;5067940;28;42964;-78
2023/12/12 07:24:53;;;;;;;;;;;15.80;49.80;;;;;;5067753;28;42997;-78
2023/12/12 07:27:19;;;;;;;;;;;15.80;49.60;;;;;;5067772;28;43126;-78
2023/12/12 07:29:45;;;;;;;;;;;;;;;;;;5067194;28;43752;-78
2023/12/12 07:32:10;;;;;;;;;;;15.70;48.60;;;;;;5067097;28;42769;-78
2023/12/12 07:34:36;;;;;;;;;;;15.80;49.80;;;;;;5067444;28;43168;-78
2023/12/12 07:37:01;;;;;;;;;;;15.70;50.00;;;;;;5067137;28;42954;-78
2023/12/12 07:39:27;;;;;;;;;;;15.70;50.30;;;;;;5063781;28;42968;-78
2023/12/12 07:41:52;;;;;;;;;;;15.70;50.40;;;;;;5058360;28;43135;-77
2023/12/12 07:44:18;;;;;;;;;;;15.70;50.30;;;;;;5050512;28;42924;-79
2023/12/12 07:46:43;;;;;;;;;;;15.70;50.10;;;;;;5066946;28;42891;-78
2023/12/12 07:49:09;;;;;;;;;;;15.50;50.20;;;;;;5066950;28;42883;-77
2023/12/12 07:51:34;;;;;;;;;;;15.50;48.80;;;;;;5067103;28;42946;-77
2023/12/12 07:54:01;;;;;;;;;;;15.60;48.20;;;;;;5074842;28;43977;-78
2023/12/12 07:56:26;;;;;;;;;;;15.50;48.00;;;;;;5069444;28;42796;-78
2023/12/12 07:58:52;;;;;;;;;;;15.50;47.60;;;;;;5066523;28;42845;-78
2023/12/12 08:01:17;;;;;;;;;;;15.50;47.70;;;;;;5049312;28;42710;-77
2023/12/12 08:03:43;;;;;;;;;;;15.50;47.50;;;;;;5050414;28;44355;-78
2023/12/12 08:06:09;;;;;;;;;;;15.50;47.50;;;;;;5066421;28;42946;-78
2023/12/12 08:08:36;;;;;;;;;;;15.50;46.90;;;;;;5063887;28;43548;-78
2023/12/12 08:11:02;;;;;;;;;;;15.40;47.40;;;;;;5066238;28;42930;-78
2023/12/12 08:13:27;;;;;;;;;;;15.50;47.40;;;;;;5066631;28;43063;-78
2023/12/12 08:15:53;;;;;;;;;;;15.40;47.50;;;;;;5066732;28;42909;-80
2023/12/12 08:18:18;;;;;;;;;;;15.40;47.90;;;;;;5066579;28;43805;-79
2023/12/12 08:20:44;;;;;;;;;;;15.40;47.60;;;;;;5066175;28;42989;-79
2023/12/12 08:23:09;;;;;;;;;;;15.40;47.30;;;;;;5063848;28;43591;-79
2023/12/12 08:25:35;;;;;;;;;;;15.30;49.30;;;;;;5066400;28;42997;-80
2023/12/12 08:28:00;;;;;;;;;;;15.50;50.20;;;;;;5066511;28;42909;-80
2023/12/12 08:30:26;;;;;;;;;;;15.50;49.60;;;;;;5063514;28;42803;-79
2023/12/12 08:32:52;;;;;;;;;;;15.60;50.70;;;;;;5066021;28;42841;-79
2023/12/12 08:35:17;;;;;;;;;;;15.60;50.60;;;;;;5056254;28;42933;-79
2023/12/12 08:37:44;;;;;;;;;;;15.70;50.80;;;;;;5064688;28;42852;-78
2023/12/12 08:40:09;;;;;;;;;;;15.70;51.10;;;;;;5066140;28;42846;-79
2023/12/12 08:42:35;;;;;;;;;;;15.70;50.90;;;;;;5065497;28;43381;-79
2023/12/12 08:45:01;;;;;;;;;;;15.80;51.20;;;;;;5065326;28;43046;-79
2023/12/12 08:47:27;;;;;;;;;;;15.60;50.90;;;;;;5044777;28;44831;-79
2023/12/12 08:49:52;;;;;;;;;;;15.80;51.50;;;;;;5064199;28;42964;-78
2023/12/12 08:52:18;;;;;;;;;;;15.90;51.80;;;;;;5065378;28;43810;-78
2023/12/12 08:54:47;;;;;;;;;;;15.90;51.40;;;;;;5065602;28;42915;-79
2023/12/12 08:57:13;;;;;;;;;;;15.90;51.30;;;;;;5065073;28;42826;-78
2023/12/12 08:59:39;;;;;;;;;;;15.90;51.80;;;;;;5065152;28;42744;-79
2023/12/12 09:02:04;;;;;;;;;;;15.80;51.60;;;;;;5066061;28;42744;-79
2023/12/12 09:04:32;;;;;;;;;;;16.00;52.20;;;;;;5065314;28;43225;-78
2023/12/12 09:06:58;;;;;;;;;;;16.00;51.80;;;;;;5066149;28;43459;-79
2023/12/12 09:09:25;;;;;;;;;;;16.00;52.40;;;;;;5066357;28;42843;-79
2023/12/12 09:11:51;;;;;;;;;;;16.10;52.50;;;;;;5066257;28;44562;-78
2023/12/12 09:14:16;;;;;;;;;;;16.00;53.20;;;;;;5066610;28;42969;-79
2023/12/12 09:16:42;;;;;;;;;;;16.10;53.30;;;;;;5066600;28;43454;-79
2023/12/12 09:19:09;;;;;;;;;;;16.20;53.20;;;;;;5066395;28;42886;-79
2023/12/12 09:21:35;;;;;;;;;;;16.00;53.60;;;;;;5065961;28;43334;-79
2023/12/12 09:24:00;;;;;;;;;;;16.00;53.90;;;;;;5066068;28;42902;-78
2023/12/12 09:26:26;;;;;;;;;;;16.00;54.10;;;;;;5066065;28;43179;-79
2023/12/12 09:28:51;;;;;;;;;;;16.00;53.70;;;;;;5066034;28;42970;-79
2023/12/12 09:31:24;;;;;;;;;;;16.20;52.90;;;;;;5065520;28;44469;-79
2023/12/12 09:33:49;;;;;;;;;;;16.00;51.70;;;;;;5065543;28;42847;-79
2023/12/12 09:36:15;;;;;;;;;;;16.00;54.20;;;;;;5065508;28;42934;-79
2023/12/12 09:38:40;;;;;;;;;;;16.10;54.10;;;;;;5065300;28;43045;-78
2023/12/12 09:41:07;;;;;;;;;;;16.10;53.80;;;;;;5065479;28;43012;-79
2023/12/12 09:43:35;;;;;;;;;;;16.10;54.30;;;;;;5065484;28;42945;-79
2023/12/12 09:46:03;;;;;;;;;;;16.10;54.00;;;;;;5065499;28;43022;-78
2023/12/12 09:48:28;;;;;;;;;;;16.10;54.40;;;;;;5065570;28;42760;-79
2023/12/12 09:50:54;;;;;;;;;;;16.10;54.40;;;;;;5065537;28;43605;-78
2023/12/12 09:53:20;;;;;;;;;;;16.20;52.50;;;;;;5065495;28;42939;-78
2023/12/12 09:55:46;;;;;;;;;;;16.30;51.90;;;;;;5065287;28;42930;-79
2023/12/12 09:58:12;;;;;;;;;;;16.20;52.40;;;;;;5066168;28;43035;-79
2023/12/12 10:00:37;;;;;;;;;;;16.50;52.40;;;;;;5063926;28;43739;-78
2023/12/12 10:03:05;;;;;;;;;;;16.20;51.70;;;;;;5065656;28;43025;-79
2023/12/12 10:05:33;;;;;;;;;;;16.20;52.10;;;;;;5065343;28;42997;-78
2023/12/12 10:08:03;;;;;;;;;;;16.50;52.30;;;;;;5074429;28;42950;-79
2023/12/12 10:10:28;;;;;;;;;;;16.20;51.80;;;;;;5071771;28;43016;-79
2023/12/12 10:12:54;;;;;;;;;;;16.20;52.30;;;;;;5065452;28;42780;-79
2023/12/12 10:15:21;;;;;;;;;;;16.20;52.30;;;;;;5065558;28;42922;-79
2023/12/12 10:17:46;;;;;;;;;;;16.30;52.40;;;;;;5068844;28;42889;-79
2023/12/12 10:20:12;;;;;;;;;;;16.20;52.50;;;;;;5069178;28;43687;-79
2023/12/12 10:22:37;;;;;;;;;;;16.20;52.40;;;;;;5068965;28;42871;-79
2023/12/12 10:25:10;;;;;;;;;;;16.20;52.70;;;;;;5050119;28;44941;-79
2023/12/12 10:27:36;;;;;;;;;;;16.20;52.30;;;;;;5068481;28;42802;-82
2023/12/12 10:30:05;;;;;;;;;;;16.20;52.70;;;;;;5068330;28;42876;-79
2023/12/12 10:32:31;;;;;;;;;;;16.20;52.20;;;;;;5068749;28;42839;-79
2023/12/12 10:34:56;;;;;;;;;;;16.30;52.70;;;;;;5068648;28;42887;-79
2023/12/12 10:37:22;;;;;;;;;;;16.30;52.20;;;;;;5068786;28;42942;-78
2023/12/12 10:39:49;;;;;;;;;;;16.30;52.70;;;;;;5068576;28;43250;-79
2023/12/12 10:42:15;;;;;;;;;;;16.30;52.70;;;;;;5068815;28;42874;-79
2023/12/12 10:44:43;;;;;;;;;;;16.20;52.20;;;;;;5068267;28;43116;-79
2023/12/12 10:47:12;;;;;;;;;;;16.30;52.70;;;;;;5068669;28;42985;-78
2023/12/12 10:49:41;;;;;;;;;;;16.30;53.00;;;;;;5068402;28;43383;-78
2023/12/12 10:52:08;;;;;;;;;;;16.30;53.10;;;;;;5069051;28;42987;-79
2023/12/12 10:54:35;;;;;;;;;;;16.30;53.30;;;;;;5066444;28;43468;-79
2023/12/12 10:57:04;;;;;;;;;;;16.30;53.30;;;;;;5067855;28;42939;-79
2023/12/12 10:59:30;;;;;;;;;;;16.30;52.30;;;;;;5067838;28;42912;-78
2023/12/12 11:01:56;;;;;;;;;;;16.30;53.00;;;;;;5068218;28;42892;-79
2023/12/12 11:04:23;;;;;;;;;;;16.30;52.90;;;;;;5068324;28;42869;-79
2023/12/12 11:06:50;;;;;;;;;;;16.30;52.90;;;;;;5068255;28;42857;-79
2023/12/12 11:09:15;;;;;;;;;;;16.30;52.30;;;;;;5049970;28;43597;-79
2023/12/12 11:11:42;;;;;;;;;;;16.40;53.20;;;;;;5068183;28;42988;-79
2023/12/12 11:14:08;;;;;;;;;;;16.40;53.10;;;;;;5067859;28;43091;-79
2023/12/12 11:16:34;;;;;;;;;;;16.40;52.70;;;;;;5067760;28;43140;-79
2023/12/12 11:19:01;;;;;;;;;;;16.30;53.60;;;;;;5068001;28;43353;-79
2023/12/12 11:21:46;;;;;;;;;;;16.20;53.50;;;;;;5067920;28;42924;-79
2023/12/12 11:24:15;;;;;;;;;;;16.30;52.70;;;;;;5067387;28;43594;-79
2023/12/12 11:26:42;;;;;;;;;;;16.30;52.80;;;;;;5067807;28;42929;-79
2023/12/12 11:29:10;;;;;;;;;;;16.30;54.80;;;;;;5067283;28;43340;-79
2023/12/12 11:31:36;;;;;;;;;;;16.30;55.30;;;;;;5067923;28;43002;-79
2023/12/12 11:34:05;;;;;;;;;;;16.50;55.20;;;;;;5067105;28;42963;-79
2023/12/12 11:36:53;;;;;;;;;;;16.40;55.60;;;;;;5067658;28;42850;-79
2023/12/12 11:39:51;;;;;;;;;;;16.30;55.10;;;;;;5066982;28;42868;-79
2023/12/12 11:42:18;;;;;;;;;;;16.40;55.30;;;;;;5047540;28;43071;-79
2023/12/12 11:44:49;;;;;;;;;;;16.30;56.20;;;;;;5067481;28;42927;-78
2023/12/12 11:47:15;;;;;;;;;;;16.40;56.30;;;;;;5067284;28;42934;-79
2023/12/12 11:49:41;;;;;;;;;;;16.40;56.30;;;;;;5067557;28;42960;-79
2023/12/12 11:52:07;;;;;;;;;;;16.30;56.10;;;;;;5067162;28;42992;-79
2023/12/12 11:54:33;;;;;;;;;;;16.50;55.60;;;;;;5049154;28;43409;-79
2023/12/12 11:56:59;;;;;;;;;;;16.50;56.00;;;;;;5067304;28;43071;-79
2023/12/12 11:59:26;;;;;;;;;;;16.50;56.00;;;;;;5067407;28;44368;-79
2023/12/12 12:01:52;;;;;;;;;;;16.50;56.30;;;;;;5067643;28;43145;-79
2023/12/12 12:04:18;;;;;;;;;;;16.60;56.10;;;;;;5067270;28;43400;-79
2023/12/12 12:06:44;;;;;;;;;;;16.40;55.80;;;;;;5066909;28;42981;-79
2023/12/12 12:09:11;;;;;;;;;;;16.40;56.20;;;;;;5067430;28;43724;-79
2023/12/12 12:11:40;;;;;;;;;;;16.50;56.20;;;;;;5067364;28;43100;-79
2023/12/12 12:14:06;;;;;;;;;;;16.40;56.00;;;;;;5066283;28;43614;-79
2023/12/12 12:16:31;;;;;;;;;;;16.50;56.10;;;;;;5067383;28;42911;-79
2023/12/12 12:18:57;;;;;;;;;;;16.30;55.40;;;;;;5067619;28;43784;-79
2023/12/12 12:21:26;;;;;;;;;;;16.40;55.80;;;;;;5067475;28;42924;-78
2023/12/12 12:23:54;;;;;;;;;;;16.50;55.90;;;;;;5078527;28;43541;-79
2023/12/12 12:26:20;;;;;;;;;;;16.50;56.00;;;;;;5066126;28;43057;-79
2023/12/12 12:28:46;;;;;;;;;;;16.40;56.10;;;;;;5067081;28;42926;-79
2023/12/12 12:31:11;;;;;;;;;;;16.60;56.30;;;;;;5066959;28;43028;-79
2023/12/12 12:33:37;;;;;;;;;;;16.40;56.60;;;;;;5067428;28;43031;-79
2023/12/12 12:36:03;;;;;;;;;;;16.50;56.30;;;;;;5066879;28;42941;-79
2023/12/12 12:38:31;;;;;;;;;;;16.70;56.20;;;;;;5066676;28;44271;-80
2023/12/12 12:40:57;;;;;;;;;;;16.50;56.10;;;;;;5067009;28;42713;-79
2023/12/12 12:43:24;;;;;;;;;;;16.70;56.60;;;;;;5065732;28;65628;-79
2023/12/12 12:45:51;;;;;;;;;;;16.50;56.30;;;;;;5066461;28;43076;-79
2023/12/12 12:48:17;;;;;;;;;;;16.60;56.50;;;;;;5066725;28;43370;-79
2023/12/12 12:50:44;;;;;;;;;;;16.50;56.40;;;;;;5066609;28;42911;-80
2023/12/12 12:53:10;;;;;;;;;;;16.60;53.80;;;;;;5066428;28;42870;-78
2023/12/12 12:55:38;;;;;;;;;;;16.60;56.20;;;;;;5067208;28;42857;-79
2023/12/12 12:58:04;;;;;;;;;;;16.60;56.40;;;;;;5066203;28;43440;-80
2023/12/12 13:00:29;;;;;;;;;;;16.50;56.30;;;;;;5047721;28;42892;-80
2023/12/12 13:02:55;;;;;;;;;;;16.50;56.30;;;;;;5066472;28;42935;-80
2023/12/12 13:05:21;;;;;;;;;;;16.40;56.40;;;;;;5066468;28;42923;-80
2023/12/12 13:07:46;;;;;;;;;;;16.50;56.70;;;;;;5066191;28;43416;-80
2023/12/12 13:10:14;;;;;;;;;;;16.60;56.90;;;;;;5048439;28;42902;-80
2023/12/12 13:12:40;;;;;;;;;;;16.60;57.10;;;;;;5066362;28;42807;-81
2023/12/12 13:15:07;;;;;;;;;;;16.60;57.00;;;;;;5065964;28;42904;-79
2023/12/12 13:17:33;;;;;;;;;;;;;;;;;;5065836;28;42792;-80
2023/12/12 13:20:00;;;;;;;;;;;16.50;56.30;;;;;;5064908;28;43190;-80
2023/12/12 13:22:26;;;;;;;;;;;16.50;56.30;;;;;;5067191;28;43560;-80
2023/12/12 13:24:53;;;;;;;;;;;16.60;56.50;;;;;;5047861;28;42975;-79
2023/12/12 13:27:19;;;;;;;;;;;16.60;55.90;;;;;;5064090;28;44617;-80
2023/12/12 13:29:45;;;;;;;;;;;16.60;55.90;;;;;;5066115;28;42985;-80
2023/12/12 13:32:11;;;;;;;;;;;16.50;54.20;;;;;;5066261;28;43896;-77
2023/12/12 13:34:37;;;;;;;;;;;16.60;54.20;;;;;;5065398;28;43005;-78
2023/12/12 13:37:04;;;;;;;;;;;16.60;54.40;;;;;;5065047;28;43052;-78
2023/12/12 13:39:30;;;;;;;;;;;16.70;54.80;;;;;;5065685;28;43018;-80
2023/12/12 13:41:56;;;;;;;;;;;16.60;54.80;;;;;;5065575;28;43579;-80
2023/12/12 13:44:21;;;;;;;;;;;16.70;54.80;;;;;;5065083;28;43008;-80
2023/12/12 13:46:47;;;;;;;;;;;16.80;55.70;;;;;;5065490;28;43456;-80
2023/12/12 13:49:12;;;;;;;;;;;16.90;55.60;;;;;;5065637;28;42996;-80
2023/12/12 13:51:38;;;;;;;;;;;16.60;55.70;;;;;;5064674;28;42912;-80
2023/12/12 13:54:04;;;;;;;;;;;16.70;55.80;;;;;;5065785;28;42958;-80
2023/12/12 13:56:30;;;;;;;;;;;16.60;55.80;;;;;;5065561;28;43906;-80
2023/12/12 13:58:56;;;;;;;;;;;;;;;;;;5065213;28;42940;-81
2023/12/12 14:01:21;;;;;;;;;;;16.80;56.00;;;;;;5065032;28;43413;-80
2023/12/12 14:03:47;;;;;;;;;;;16.70;56.00;;;;;;5065179;28;43005;-81
2023/12/12 14:06:12;;;;;;;;;;;16.70;56.20;;;;;;5065092;28;42880;-80
2023/12/12 14:08:38;;;;;;;;;;;16.90;56.10;;;;;;5065365;28;42916;-80
2023/12/12 14:11:04;;;;;;;;;;;16.70;56.20;;;;;;5065037;28;43550;-80
2023/12/12 14:13:29;;;;;;;;;;;16.80;56.40;;;;;;5065462;28;43063;-80